sensor_id;sensor_type;location;lat;lon;timestamp;P1;durP1;ratioP1;P2;durP2;ratioP2
83356;SDS011;73272;50.882;5.984;2024-01-06T00:01:35;27.33;;;12.37;;
83356;SDS011;73272;50.882;5.984;2024-01-06T00:04:00;28.50;;;13.00;;
83356;SDS011;73272;50.882;5.984;2024-01-06T00:06:26;27.83;;;12.50;;
83356;SDS011;73272;50.882;5.984;2024-01-06T00:08:51;29.77;;;13.48;;
83356;SDS011;73272;50.882;5.984;2024-01-06T00:11:22;38.08;;;14.45;;
83356;SDS011;73272;50.882;5.984;2024-01-06T00:13:48;32.28;;;13.88;;
83356;SDS011;73272;50.882;5.984;2024-01-06T00:16:16;34.15;;;14.70;;
83356;SDS011;73272;50.882;5.984;2024-01-06T00:18:43;32.67;;;14.37;;
83356;SDS011;73272;50.882;5.984;2024-01-06T00:21:08;37.55;;;14.75;;
83356;SDS011;73272;50.882;5.984;2024-01-06T00:23:34;37.43;;;15.07;;
83356;SDS011;73272;50.882;5.984;2024-01-06T00:25:59;34.60;;;14.73;;
83356;SDS011;73272;50.882;5.984;2024-01-06T00:28:24;35.33;;;15.27;;
83356;SDS011;73272;50.882;5.984;2024-01-06T00:30:50;32.83;;;14.90;;
83356;SDS011;73272;50.882;5.984;2024-01-06T00:33:15;37.63;;;16.35;;
83356;SDS011;73272;50.882;5.984;2024-01-06T00:35:41;34.03;;;15.43;;
83356;SDS011;73272;50.882;5.984;2024-01-06T00:38:06;36.27;;;14.83;;
83356;SDS011;73272;50.882;5.984;2024-01-06T00:40:32;40.80;;;16.10;;
83356;SDS011;73272;50.882;5.984;2024-01-06T00:42:58;37.22;;;16.00;;
83356;SDS011;73272;50.882;5.984;2024-01-06T00:45:24;38.40;;;15.43;;
83356;SDS011;73272;50.882;5.984;2024-01-06T00:47:49;33.80;;;14.40;;
83356;SDS011;73272;50.882;5.984;2024-01-06T00:50:15;36.97;;;16.30;;
83356;SDS011;73272;50.882;5.984;2024-01-06T00:52:41;35.97;;;16.20;;
83356;SDS011;73272;50.882;5.984;2024-01-06T00:55:07;39.23;;;15.97;;
83356;SDS011;73272;50.882;5.984;2024-01-06T00:57:33;37.75;;;15.73;;
83356;SDS011;73272;50.882;5.984;2024-01-06T00:59:58;35.13;;;14.77;;
83356;SDS011;73272;50.882;5.984;2024-01-06T01:02:23;34.00;;;14.83;;
83356;SDS011;73272;50.882;5.984;2024-01-06T01:04:49;40.42;;;15.52;;
83356;SDS011;73272;50.882;5.984;2024-01-06T01:07:14;35.80;;;16.63;;
83356;SDS011;73272;50.882;5.984;2024-01-06T01:09:40;38.83;;;16.60;;
83356;SDS011;73272;50.882;5.984;2024-01-06T01:12:06;41.77;;;17.27;;
83356;SDS011;73272;50.882;5.984;2024-01-06T01:14:31;43.80;;;18.03;;
83356;SDS011;73272;50.882;5.984;2024-01-06T01:16:57;43.53;;;17.70;;
83356;SDS011;73272;50.882;5.984;2024-01-06T01:19:22;43.83;;;16.80;;
83356;SDS011;73272;50.882;5.984;2024-01-06T01:21:47;35.23;;;15.63;;
83356;SDS011;73272;50.882;5.984;2024-01-06T01:24:13;39.58;;;17.00;;
83356;SDS011;73272;50.882;5.984;2024-01-06T01:26:38;37.05;;;16.67;;
83356;SDS011;73272;50.882;5.984;2024-01-06T01:29:04;35.50;;;14.33;;
83356;SDS011;73272;50.882;5.984;2024-01-06T01:31:29;42.40;;;17.33;;
83356;SDS011;73272;50.882;5.984;2024-01-06T01:33:54;43.30;;;18.03;;
83356;SDS011;73272;50.882;5.984;2024-01-06T01:36:20;42.17;;;16.67;;
83356;SDS011;73272;50.882;5.984;2024-01-06T01:38:45;40.50;;;17.67;;
83356;SDS011;73272;50.882;5.984;2024-01-06T01:41:11;38.58;;;16.95;;
83356;SDS011;73272;50.882;5.984;2024-01-06T01:43:36;41.33;;;16.93;;
83356;SDS011;73272;50.882;5.984;2024-01-06T01:46:02;33.60;;;15.23;;
83356;SDS011;73272;50.882;5.984;2024-01-06T01:48:28;34.63;;;16.20;;
83356;SDS011;73272;50.882;5.984;2024-01-06T01:50:54;32.43;;;14.23;;
83356;SDS011;73272;50.882;5.984;2024-01-06T01:53:19;31.42;;;15.07;;
83356;SDS011;73272;50.882;5.984;2024-01-06T01:55:45;33.87;;;14.03;;
83356;SDS011;73272;50.882;5.984;2024-01-06T01:58:11;33.13;;;13.43;;
83356;SDS011;73272;50.882;5.984;2024-01-06T02:00:37;30.17;;;14.13;;
83356;SDS011;73272;50.882;5.984;2024-01-06T02:03:03;29.40;;;12.97;;
83356;SDS011;73272;50.882;5.984;2024-01-06T02:05:29;32.63;;;13.32;;
83356;SDS011;73272;50.882;5.984;2024-01-06T02:07:55;27.50;;;12.10;;
83356;SDS011;73272;50.882;5.984;2024-01-06T02:10:20;30.43;;;12.73;;
83356;SDS011;73272;50.882;5.984;2024-01-06T02:12:46;29.57;;;12.00;;
83356;SDS011;73272;50.882;5.984;2024-01-06T02:15:12;30.77;;;12.80;;
83356;SDS011;73272;50.882;5.984;2024-01-06T02:17:38;30.53;;;13.13;;
83356;SDS011;73272;50.882;5.984;2024-01-06T02:20:05;27.20;;;12.70;;
83356;SDS011;73272;50.882;5.984;2024-01-06T02:22:32;33.22;;;12.50;;
83356;SDS011;73272;50.882;5.984;2024-01-06T02:24:58;26.88;;;11.57;;
83356;SDS011;73272;50.882;5.984;2024-01-06T02:27:23;33.37;;;13.10;;
83356;SDS011;73272;50.882;5.984;2024-01-06T02:29:48;27.97;;;11.37;;
83356;SDS011;73272;50.882;5.984;2024-01-06T02:32:14;26.37;;;12.20;;
83356;SDS011;73272;50.882;5.984;2024-01-06T02:34:39;26.00;;;10.88;;
83356;SDS011;73272;50.882;5.984;2024-01-06T02:37:05;24.40;;;10.30;;
83356;SDS011;73272;50.882;5.984;2024-01-06T02:39:30;22.57;;;10.83;;
83356;SDS011;73272;50.882;5.984;2024-01-06T02:41:56;26.17;;;10.70;;
83356;SDS011;73272;50.882;5.984;2024-01-06T02:44:21;24.90;;;10.27;;
83356;SDS011;73272;50.882;5.984;2024-01-06T02:46:46;26.75;;;11.55;;
83356;SDS011;73272;50.882;5.984;2024-01-06T02:49:12;24.23;;;10.70;;
83356;SDS011;73272;50.882;5.984;2024-01-06T02:51:37;24.77;;;10.60;;
83356;SDS011;73272;50.882;5.984;2024-01-06T02:54:03;26.57;;;9.90;;
83356;SDS011;73272;50.882;5.984;2024-01-06T02:56:29;28.85;;;10.85;;
83356;SDS011;73272;50.882;5.984;2024-01-06T02:58:54;24.40;;;9.73;;
83356;SDS011;73272;50.882;5.984;2024-01-06T03:01:20;27.97;;;10.77;;
83356;SDS011;73272;50.882;5.984;2024-01-06T03:03:45;27.40;;;10.23;;
83356;SDS011;73272;50.882;5.984;2024-01-06T03:06:10;29.43;;;10.70;;
83356;SDS011;73272;50.882;5.984;2024-01-06T03:08:36;27.08;;;11.05;;
83356;SDS011;73272;50.882;5.984;2024-01-06T03:11:02;24.13;;;10.03;;
83356;SDS011;73272;50.882;5.984;2024-01-06T03:13:29;27.43;;;10.27;;
83356;SDS011;73272;50.882;5.984;2024-01-06T03:15:54;24.55;;;10.20;;
83356;SDS011;73272;50.882;5.984;2024-01-06T03:18:19;26.70;;;10.07;;
83356;SDS011;73272;50.882;5.984;2024-01-06T03:20:45;23.60;;;9.37;;
83356;SDS011;73272;50.882;5.984;2024-01-06T03:23:10;21.23;;;8.53;;
83356;SDS011;73272;50.882;5.984;2024-01-06T03:25:35;21.87;;;8.17;;
83356;SDS011;73272;50.882;5.984;2024-01-06T03:28:01;24.15;;;8.93;;
83356;SDS011;73272;50.882;5.984;2024-01-06T03:30:26;22.67;;;8.87;;
83356;SDS011;73272;50.882;5.984;2024-01-06T03:32:52;26.07;;;8.90;;
83356;SDS011;73272;50.882;5.984;2024-01-06T03:35:17;27.53;;;9.43;;
83356;SDS011;73272;50.882;5.984;2024-01-06T03:37:43;29.17;;;9.40;;
83356;SDS011;73272;50.882;5.984;2024-01-06T03:40:08;29.73;;;10.30;;
83356;SDS011;73272;50.882;5.984;2024-01-06T03:42:34;31.83;;;10.20;;
83356;SDS011;73272;50.882;5.984;2024-01-06T03:45:01;30.25;;;10.95;;
83356;SDS011;73272;50.882;5.984;2024-01-06T03:47:27;29.87;;;10.87;;
83356;SDS011;73272;50.882;5.984;2024-01-06T03:49:52;30.70;;;11.20;;
83356;SDS011;73272;50.882;5.984;2024-01-06T03:52:18;32.40;;;11.15;;
83356;SDS011;73272;50.882;5.984;2024-01-06T03:54:43;31.73;;;11.80;;
83356;SDS011;73272;50.882;5.984;2024-01-06T03:57:08;34.80;;;12.03;;
83356;SDS011;73272;50.882;5.984;2024-01-06T03:59:34;33.47;;;11.40;;
83356;SDS011;73272;50.882;5.984;2024-01-06T04:01:59;30.53;;;10.83;;
83356;SDS011;73272;50.882;5.984;2024-01-06T04:04:24;33.00;;;11.70;;
83356;SDS011;73272;50.882;5.984;2024-01-06T04:06:50;32.50;;;12.07;;
83356;SDS011;73272;50.882;5.984;2024-01-06T04:09:15;35.67;;;11.77;;
83356;SDS011;73272;50.882;5.984;2024-01-06T04:11:40;32.15;;;11.38;;
83356;SDS011;73272;50.882;5.984;2024-01-06T04:14:06;31.13;;;11.13;;
83356;SDS011;73272;50.882;5.984;2024-01-06T04:16:31;33.13;;;11.63;;
83356;SDS011;73272;50.882;5.984;2024-01-06T04:18:56;35.30;;;12.03;;
83356;SDS011;73272;50.882;5.984;2024-01-06T04:21:22;36.40;;;12.10;;
83356;SDS011;73272;50.882;5.984;2024-01-06T04:23:47;34.37;;;11.27;;
83356;SDS011;73272;50.882;5.984;2024-01-06T04:26:13;33.90;;;11.70;;
83356;SDS011;73272;50.882;5.984;2024-01-06T04:28:38;32.70;;;12.15;;
83356;SDS011;73272;50.882;5.984;2024-01-06T04:31:03;35.03;;;11.90;;
83356;SDS011;73272;50.882;5.984;2024-01-06T04:33:29;31.60;;;11.30;;
83356;SDS011;73272;50.882;5.984;2024-01-06T04:35:54;39.03;;;12.63;;
83356;SDS011;73272;50.882;5.984;2024-01-06T04:38:20;38.43;;;11.50;;
83356;SDS011;73272;50.882;5.984;2024-01-06T04:40:45;34.10;;;11.57;;
83356;SDS011;73272;50.882;5.984;2024-01-06T04:43:11;35.17;;;11.95;;
83356;SDS011;73272;50.882;5.984;2024-01-06T04:45:36;35.20;;;11.53;;
83356;SDS011;73272;50.882;5.984;2024-01-06T04:48:02;30.77;;;11.60;;
83356;SDS011;73272;50.882;5.984;2024-01-06T04:50:28;32.53;;;11.25;;
83356;SDS011;73272;50.882;5.984;2024-01-06T04:52:53;27.47;;;10.53;;
83356;SDS011;73272;50.882;5.984;2024-01-06T04:55:19;28.23;;;10.52;;
83356;SDS011;73272;50.882;5.984;2024-01-06T04:57:44;33.25;;;11.75;;
83356;SDS011;73272;50.882;5.984;2024-01-06T05:00:10;29.57;;;10.53;;
83356;SDS011;73272;50.882;5.984;2024-01-06T05:02:36;28.33;;;10.63;;
83356;SDS011;73272;50.882;5.984;2024-01-06T05:05:01;28.08;;;11.00;;
83356;SDS011;73272;50.882;5.984;2024-01-06T05:07:27;32.07;;;11.40;;
83356;SDS011;73272;50.882;5.984;2024-01-06T05:09:52;31.00;;;10.90;;
83356;SDS011;73272;50.882;5.984;2024-01-06T05:12:17;32.33;;;11.20;;
83356;SDS011;73272;50.882;5.984;2024-01-06T05:14:43;32.37;;;12.00;;
83356;SDS011;73272;50.882;5.984;2024-01-06T05:17:08;33.87;;;11.77;;
83356;SDS011;73272;50.882;5.984;2024-01-06T05:19:34;33.97;;;11.55;;
83356;SDS011;73272;50.882;5.984;2024-01-06T05:21:59;32.47;;;11.20;;
83356;SDS011;73272;50.882;5.984;2024-01-06T05:24:24;33.33;;;11.83;;
83356;SDS011;73272;50.882;5.984;2024-01-06T05:26:50;31.17;;;11.20;;
83356;SDS011;73272;50.882;5.984;2024-01-06T05:29:15;34.30;;;11.80;;
83356;SDS011;73272;50.882;5.984;2024-01-06T05:31:41;31.45;;;11.68;;
83356;SDS011;73272;50.882;5.984;2024-01-06T05:34:06;31.37;;;11.13;;
83356;SDS011;73272;50.882;5.984;2024-01-06T05:36:31;30.57;;;11.13;;
83356;SDS011;73272;50.882;5.984;2024-01-06T05:38:57;31.60;;;11.47;;
83356;SDS011;73272;50.882;5.984;2024-01-06T05:41:22;30.63;;;10.47;;
83356;SDS011;73272;50.882;5.984;2024-01-06T05:43:48;33.53;;;12.13;;
83356;SDS011;73272;50.882;5.984;2024-01-06T05:46:20;30.35;;;11.80;;
83356;SDS011;73272;50.882;5.984;2024-01-06T05:48:51;31.40;;;12.37;;
83356;SDS011;73272;50.882;5.984;2024-01-06T05:51:16;29.65;;;11.30;;
83356;SDS011;73272;50.882;5.984;2024-01-06T05:53:42;31.27;;;11.30;;
83356;SDS011;73272;50.882;5.984;2024-01-06T05:56:09;32.10;;;11.35;;
83356;SDS011;73272;50.882;5.984;2024-01-06T05:58:35;31.57;;;11.67;;
83356;SDS011;73272;50.882;5.984;2024-01-06T06:01:00;29.17;;;11.00;;
83356;SDS011;73272;50.882;5.984;2024-01-06T06:03:26;30.00;;;11.27;;
83356;SDS011;73272;50.882;5.984;2024-01-06T06:05:51;31.98;;;11.35;;
83356;SDS011;73272;50.882;5.984;2024-01-06T06:08:16;30.23;;;11.10;;
83356;SDS011;73272;50.882;5.984;2024-01-06T06:10:42;30.13;;;11.30;;
83356;SDS011;73272;50.882;5.984;2024-01-06T06:13:24;28.38;;;10.52;;
83356;SDS011;73272;50.882;5.984;2024-01-06T06:15:50;30.17;;;11.27;;
83356;SDS011;73272;50.882;5.984;2024-01-06T06:18:15;26.87;;;11.20;;
83356;SDS011;73272;50.882;5.984;2024-01-06T06:20:41;30.67;;;11.55;;
83356;SDS011;73272;50.882;5.984;2024-01-06T06:23:08;29.83;;;10.07;;
83356;SDS011;73272;50.882;5.984;2024-01-06T06:25:34;33.20;;;11.60;;
83356;SDS011;73272;50.882;5.984;2024-01-06T06:27:59;31.93;;;11.10;;
83356;SDS011;73272;50.882;5.984;2024-01-06T06:30:25;29.73;;;10.33;;
83356;SDS011;73272;50.882;5.984;2024-01-06T06:32:51;31.05;;;10.70;;
83356;SDS011;73272;50.882;5.984;2024-01-06T06:35:16;28.97;;;10.30;;
83356;SDS011;73272;50.882;5.984;2024-01-06T06:37:41;32.10;;;11.27;;
83356;SDS011;73272;50.882;5.984;2024-01-06T06:40:07;36.43;;;11.80;;
83356;SDS011;73272;50.882;5.984;2024-01-06T06:42:33;34.15;;;11.93;;
83356;SDS011;73272;50.882;5.984;2024-01-06T06:44:58;40.53;;;12.03;;
83356;SDS011;73272;50.882;5.984;2024-01-06T06:47:23;39.53;;;11.93;;
83356;SDS011;73272;50.882;5.984;2024-01-06T06:49:49;33.60;;;11.23;;
83356;SDS011;73272;50.882;5.984;2024-01-06T06:52:14;34.60;;;10.40;;
83356;SDS011;73272;50.882;5.984;2024-01-06T06:54:39;40.88;;;11.70;;
83356;SDS011;73272;50.882;5.984;2024-01-06T06:57:05;41.27;;;11.93;;
83356;SDS011;73272;50.882;5.984;2024-01-06T06:59:30;41.27;;;11.30;;
83356;SDS011;73272;50.882;5.984;2024-01-06T07:01:55;39.40;;;11.90;;
83356;SDS011;73272;50.882;5.984;2024-01-06T07:04:21;45.47;;;12.90;;
83356;SDS011;73272;50.882;5.984;2024-01-06T07:06:48;44.67;;;13.00;;
83356;SDS011;73272;50.882;5.984;2024-01-06T07:09:13;41.97;;;12.57;;
83356;SDS011;73272;50.882;5.984;2024-01-06T07:11:39;38.53;;;11.97;;
83356;SDS011;73272;50.882;5.984;2024-01-06T07:14:04;35.83;;;12.20;;
83356;SDS011;73272;50.882;5.984;2024-01-06T07:16:30;32.17;;;11.30;;
83356;SDS011;73272;50.882;5.984;2024-01-06T07:18:55;36.25;;;11.82;;
83356;SDS011;73272;50.882;5.984;2024-01-06T07:21:20;30.50;;;10.00;;
83356;SDS011;73272;50.882;5.984;2024-01-06T07:23:46;27.87;;;11.13;;
83356;SDS011;73272;50.882;5.984;2024-01-06T07:26:11;29.40;;;10.88;;
83356;SDS011;73272;50.882;5.984;2024-01-06T07:28:37;24.25;;;9.88;;
83356;SDS011;73272;50.882;5.984;2024-01-06T07:31:02;27.67;;;10.70;;
83356;SDS011;73272;50.882;5.984;2024-01-06T07:33:29;32.15;;;11.75;;
83356;SDS011;73272;50.882;5.984;2024-01-06T07:35:55;32.37;;;11.40;;
83356;SDS011;73272;50.882;5.984;2024-01-06T07:38:20;30.97;;;11.03;;
83356;SDS011;73272;50.882;5.984;2024-01-06T07:40:45;30.40;;;11.17;;
83356;SDS011;73272;50.882;5.984;2024-01-06T07:43:11;30.83;;;10.57;;
83356;SDS011;73272;50.882;5.984;2024-01-06T07:45:36;25.77;;;9.60;;
83356;SDS011;73272;50.882;5.984;2024-01-06T07:48:02;28.00;;;10.33;;
83356;SDS011;73272;50.882;5.984;2024-01-06T07:50:28;28.15;;;10.65;;
83356;SDS011;73272;50.882;5.984;2024-01-06T07:52:54;27.40;;;10.00;;
83356;SDS011;73272;50.882;5.984;2024-01-06T07:55:19;26.27;;;10.45;;
83356;SDS011;73272;50.882;5.984;2024-01-06T07:57:45;29.27;;;10.67;;
83356;SDS011;73272;50.882;5.984;2024-01-06T08:00:11;28.17;;;10.48;;
83356;SDS011;73272;50.882;5.984;2024-01-06T08:02:39;26.77;;;10.48;;
83356;SDS011;73272;50.882;5.984;2024-01-06T08:05:05;26.00;;;9.95;;
83356;SDS011;73272;50.882;5.984;2024-01-06T08:07:32;26.40;;;9.70;;
83356;SDS011;73272;50.882;5.984;2024-01-06T08:09:57;27.83;;;9.93;;
83356;SDS011;73272;50.882;5.984;2024-01-06T08:12:23;27.83;;;10.20;;
83356;SDS011;73272;50.882;5.984;2024-01-06T08:14:48;24.63;;;9.82;;
83356;SDS011;73272;50.882;5.984;2024-01-06T08:17:14;24.27;;;9.17;;
83356;SDS011;73272;50.882;5.984;2024-01-06T08:19:39;24.83;;;9.50;;
83356;SDS011;73272;50.882;5.984;2024-01-06T08:22:08;20.67;;;8.60;;
83356;SDS011;73272;50.882;5.984;2024-01-06T08:24:33;18.27;;;8.20;;
83356;SDS011;73272;50.882;5.984;2024-01-06T08:26:59;19.92;;;8.60;;
83356;SDS011;73272;50.882;5.984;2024-01-06T08:29:24;21.13;;;9.20;;
83356;SDS011;73272;50.882;5.984;2024-01-06T08:31:50;18.95;;;7.53;;
83356;SDS011;73272;50.882;5.984;2024-01-06T08:34:17;18.90;;;7.85;;
83356;SDS011;73272;50.882;5.984;2024-01-06T08:36:46;18.52;;;8.38;;
83356;SDS011;73272;50.882;5.984;2024-01-06T08:39:11;19.00;;;8.32;;
83356;SDS011;73272;50.882;5.984;2024-01-06T08:41:37;19.90;;;8.32;;
83356;SDS011;73272;50.882;5.984;2024-01-06T08:44:03;17.97;;;7.57;;
83356;SDS011;73272;50.882;5.984;2024-01-06T08:46:29;18.02;;;7.45;;
83356;SDS011;73272;50.882;5.984;2024-01-06T08:48:55;17.30;;;7.30;;
83356;SDS011;73272;50.882;5.984;2024-01-06T08:51:21;15.98;;;7.05;;
83356;SDS011;73272;50.882;5.984;2024-01-06T08:53:46;15.97;;;7.17;;
83356;SDS011;73272;50.882;5.984;2024-01-06T08:56:12;16.20;;;7.13;;
83356;SDS011;73272;50.882;5.984;2024-01-06T08:58:37;16.33;;;6.95;;
83356;SDS011;73272;50.882;5.984;2024-01-06T09:01:03;18.13;;;7.27;;
83356;SDS011;73272;50.882;5.984;2024-01-06T09:03:28;16.17;;;6.60;;
83356;SDS011;73272;50.882;5.984;2024-01-06T09:05:55;14.73;;;6.23;;
83356;SDS011;73272;50.882;5.984;2024-01-06T09:08:22;18.17;;;6.88;;
83356;SDS011;73272;50.882;5.984;2024-01-06T09:10:49;16.02;;;7.10;;
83356;SDS011;73272;50.882;5.984;2024-01-06T09:13:16;17.60;;;7.00;;
83356;SDS011;73272;50.882;5.984;2024-01-06T09:15:42;21.00;;;8.00;;
83356;SDS011;73272;50.882;5.984;2024-01-06T09:18:08;18.10;;;7.70;;
83356;SDS011;73272;50.882;5.984;2024-01-06T09:20:34;18.73;;;7.43;;
83356;SDS011;73272;50.882;5.984;2024-01-06T09:22:59;16.20;;;7.43;;
83356;SDS011;73272;50.882;5.984;2024-01-06T09:25:29;15.70;;;6.80;;
83356;SDS011;73272;50.882;5.984;2024-01-06T09:27:55;16.55;;;7.05;;
83356;SDS011;73272;50.882;5.984;2024-01-06T09:30:20;25.37;;;7.17;;
83356;SDS011;73272;50.882;5.984;2024-01-06T09:32:45;16.20;;;6.63;;
83356;SDS011;73272;50.882;5.984;2024-01-06T09:35:11;15.67;;;6.80;;
83356;SDS011;73272;50.882;5.984;2024-01-06T09:37:36;15.83;;;6.97;;
83356;SDS011;73272;50.882;5.984;2024-01-06T09:40:02;14.67;;;6.37;;
83356;SDS011;73272;50.882;5.984;2024-01-06T09:42:27;16.55;;;6.97;;
83356;SDS011;73272;50.882;5.984;2024-01-06T09:44:53;16.80;;;7.33;;
83356;SDS011;73272;50.882;5.984;2024-01-06T09:47:18;16.30;;;6.90;;
83356;SDS011;73272;50.882;5.984;2024-01-06T09:49:50;16.50;;;7.30;;
83356;SDS011;73272;50.882;5.984;2024-01-06T09:52:17;19.80;;;7.30;;
83356;SDS011;73272;50.882;5.984;2024-01-06T09:54:49;16.20;;;7.18;;
83356;SDS011;73272;50.882;5.984;2024-01-06T09:57:16;18.83;;;7.53;;
83356;SDS011;73272;50.882;5.984;2024-01-06T09:59:43;15.30;;;6.43;;
83356;SDS011;73272;50.882;5.984;2024-01-06T10:02:09;14.52;;;6.20;;
83356;SDS011;73272;50.882;5.984;2024-01-06T10:04:39;16.92;;;7.15;;
83356;SDS011;73272;50.882;5.984;2024-01-06T10:07:04;17.20;;;6.50;;
83356;SDS011;73272;50.882;5.984;2024-01-06T10:09:30;15.18;;;6.45;;
83356;SDS011;73272;50.882;5.984;2024-01-06T10:11:56;15.48;;;6.32;;
83356;SDS011;73272;50.882;5.984;2024-01-06T10:14:27;13.52;;;5.82;;
83356;SDS011;73272;50.882;5.984;2024-01-06T10:16:52;11.90;;;5.27;;
83356;SDS011;73272;50.882;5.984;2024-01-06T10:19:18;12.77;;;5.20;;
83356;SDS011;73272;50.882;5.984;2024-01-06T10:21:43;13.03;;;5.80;;
83356;SDS011;73272;50.882;5.984;2024-01-06T10:24:09;14.30;;;6.35;;
83356;SDS011;73272;50.882;5.984;2024-01-06T10:26:35;14.43;;;6.30;;
83356;SDS011;73272;50.882;5.984;2024-01-06T10:29:00;15.15;;;6.43;;
83356;SDS011;73272;50.882;5.984;2024-01-06T10:31:26;14.23;;;6.05;;
83356;SDS011;73272;50.882;5.984;2024-01-06T10:33:52;15.17;;;6.00;;
83356;SDS011;73272;50.882;5.984;2024-01-06T10:36:19;16.40;;;6.75;;
83356;SDS011;73272;50.882;5.984;2024-01-06T10:38:44;15.73;;;6.68;;
83356;SDS011;73272;50.882;5.984;2024-01-06T10:41:10;15.40;;;6.32;;
83356;SDS011;73272;50.882;5.984;2024-01-06T10:43:36;26.40;;;7.10;;
83356;SDS011;73272;50.882;5.984;2024-01-06T10:46:05;15.25;;;6.65;;
83356;SDS011;73272;50.882;5.984;2024-01-06T10:48:35;17.30;;;6.82;;
83356;SDS011;73272;50.882;5.984;2024-01-06T10:51:03;17.23;;;6.72;;
83356;SDS011;73272;50.882;5.984;2024-01-06T10:53:33;14.90;;;6.28;;
83356;SDS011;73272;50.882;5.984;2024-01-06T10:56:04;14.73;;;6.07;;
83356;SDS011;73272;50.882;5.984;2024-01-06T10:58:30;16.08;;;6.95;;
83356;SDS011;73272;50.882;5.984;2024-01-06T11:00:58;16.65;;;7.13;;
83356;SDS011;73272;50.882;5.984;2024-01-06T11:03:24;17.33;;;6.80;;
83356;SDS011;73272;50.882;5.984;2024-01-06T11:05:49;16.30;;;6.78;;
83356;SDS011;73272;50.882;5.984;2024-01-06T11:08:17;15.00;;;6.47;;
83356;SDS011;73272;50.882;5.984;2024-01-06T11:10:42;15.60;;;6.75;;
83356;SDS011;73272;50.882;5.984;2024-01-06T11:13:09;14.25;;;6.63;;
83356;SDS011;73272;50.882;5.984;2024-01-06T11:15:49;13.47;;;5.43;;
83356;SDS011;73272;50.882;5.984;2024-01-06T11:18:33;15.48;;;6.65;;
83356;SDS011;73272;50.882;5.984;2024-01-06T11:26:51;15.15;;;6.60;;
83356;SDS011;73272;50.882;5.984;2024-01-06T11:29:19;16.20;;;6.43;;
83356;SDS011;73272;50.882;5.984;2024-01-06T11:32:15;13.70;;;6.13;;
83356;SDS011;73272;50.882;5.984;2024-01-06T11:34:42;14.93;;;7.18;;
83356;SDS011;73272;50.882;5.984;2024-01-06T11:37:07;16.40;;;6.93;;
83356;SDS011;73272;50.882;5.984;2024-01-06T11:39:37;15.43;;;6.25;;
83356;SDS011;73272;50.882;5.984;2024-01-06T11:42:03;17.17;;;6.63;;
83356;SDS011;73272;50.882;5.984;2024-01-06T11:44:29;14.77;;;6.88;;
83356;SDS011;73272;50.882;5.984;2024-01-06T11:46:58;15.50;;;6.63;;
83356;SDS011;73272;50.882;5.984;2024-01-06T11:49:27;15.68;;;6.75;;
83356;SDS011;73272;50.882;5.984;2024-01-06T11:51:56;15.35;;;6.95;;
83356;SDS011;73272;50.882;5.984;2024-01-06T11:54:22;18.10;;;6.75;;
83356;SDS011;73272;50.882;5.984;2024-01-06T11:56:48;17.67;;;7.07;;
83356;SDS011;73272;50.882;5.984;2024-01-06T11:59:13;16.88;;;7.03;;
83356;SDS011;73272;50.882;5.984;2024-01-06T12:01:38;16.83;;;6.73;;
83356;SDS011;73272;50.882;5.984;2024-01-06T12:04:04;16.43;;;6.17;;
83356;SDS011;73272;50.882;5.984;2024-01-06T12:06:33;16.25;;;6.70;;
83356;SDS011;73272;50.882;5.984;2024-01-06T12:09:05;16.10;;;6.43;;
83356;SDS011;73272;50.882;5.984;2024-01-06T12:11:33;16.50;;;6.70;;
83356;SDS011;73272;50.882;5.984;2024-01-06T12:13:58;20.48;;;6.95;;
83356;SDS011;73272;50.882;5.984;2024-01-06T12:16:24;17.90;;;6.73;;
83356;SDS011;73272;50.882;5.984;2024-01-06T12:18:55;21.88;;;7.38;;
83356;SDS011;73272;50.882;5.984;2024-01-06T12:21:22;19.00;;;6.90;;
83356;SDS011;73272;50.882;5.984;2024-01-06T12:23:48;18.77;;;6.88;;
83356;SDS011;73272;50.882;5.984;2024-01-06T12:26:13;23.80;;;8.40;;
83356;SDS011;73272;50.882;5.984;2024-01-06T12:28:39;19.00;;;6.80;;
83356;SDS011;73272;50.882;5.984;2024-01-06T12:31:04;24.83;;;8.10;;
83356;SDS011;73272;50.882;5.984;2024-01-06T12:33:34;25.70;;;8.63;;
83356;SDS011;73272;50.882;5.984;2024-01-06T12:36:02;29.05;;;9.15;;
83356;SDS011;73272;50.882;5.984;2024-01-06T12:38:29;22.95;;;8.40;;
83356;SDS011;73272;50.882;5.984;2024-01-06T12:40:55;24.77;;;9.23;;
83356;SDS011;73272;50.882;5.984;2024-01-06T12:43:21;21.13;;;8.00;;
83356;SDS011;73272;50.882;5.984;2024-01-06T12:45:46;25.55;;;8.93;;
83356;SDS011;73272;50.882;5.984;2024-01-06T12:48:12;26.50;;;8.80;;
83356;SDS011;73272;50.882;5.984;2024-01-06T12:50:38;24.83;;;8.73;;
83356;SDS011;73272;50.882;5.984;2024-01-06T12:53:03;25.57;;;9.03;;
83356;SDS011;73272;50.882;5.984;2024-01-06T12:55:29;27.60;;;10.15;;
83356;SDS011;73272;50.882;5.984;2024-01-06T12:57:54;29.83;;;9.83;;
83356;SDS011;73272;50.882;5.984;2024-01-06T13:00:19;27.17;;;8.97;;
83356;SDS011;73272;50.882;5.984;2024-01-06T13:02:45;23.20;;;8.53;;
83356;SDS011;73272;50.882;5.984;2024-01-06T13:05:10;24.13;;;9.15;;
83356;SDS011;73272;50.882;5.984;2024-01-06T13:07:37;25.27;;;8.32;;
83356;SDS011;73272;50.882;5.984;2024-01-06T13:10:04;27.57;;;10.10;;
83356;SDS011;73272;50.882;5.984;2024-01-06T13:12:30;23.58;;;8.27;;
83356;SDS011;73272;50.882;5.984;2024-01-06T13:14:55;26.20;;;9.10;;
83356;SDS011;73272;50.882;5.984;2024-01-06T13:17:21;29.05;;;9.63;;
83356;SDS011;73272;50.882;5.984;2024-01-06T13:19:46;25.87;;;9.57;;
83356;SDS011;73272;50.882;5.984;2024-01-06T13:22:11;30.53;;;10.17;;
83356;SDS011;73272;50.882;5.984;2024-01-06T13:24:38;32.63;;;11.02;;
83356;SDS011;73272;50.882;5.984;2024-01-06T13:27:05;31.35;;;11.15;;
83356;SDS011;73272;50.882;5.984;2024-01-06T13:29:31;35.37;;;11.00;;
83356;SDS011;73272;50.882;5.984;2024-01-06T13:31:57;32.60;;;11.50;;
83356;SDS011;73272;50.882;5.984;2024-01-06T13:34:24;31.92;;;11.80;;
83356;SDS011;73272;50.882;5.984;2024-01-06T13:36:49;35.53;;;11.82;;
83356;SDS011;73272;50.882;5.984;2024-01-06T13:39:15;34.80;;;12.05;;
83356;SDS011;73272;50.882;5.984;2024-01-06T13:41:46;33.17;;;11.33;;
83356;SDS011;73272;50.882;5.984;2024-01-06T13:44:14;35.60;;;11.43;;
83356;SDS011;73272;50.882;5.984;2024-01-06T13:46:40;31.83;;;11.20;;
83356;SDS011;73272;50.882;5.984;2024-01-06T13:49:12;32.50;;;11.25;;
83356;SDS011;73272;50.882;5.984;2024-01-06T13:51:39;32.03;;;12.00;;
83356;SDS011;73272;50.882;5.984;2024-01-06T13:54:05;31.23;;;10.32;;
83356;SDS011;73272;50.882;5.984;2024-01-06T13:56:30;29.20;;;10.75;;
83356;SDS011;73272;50.882;5.984;2024-01-06T13:58:59;31.07;;;11.20;;
83356;SDS011;73272;50.882;5.984;2024-01-06T14:01:24;31.58;;;10.85;;
83356;SDS011;73272;50.882;5.984;2024-01-06T14:03:50;29.23;;;11.37;;
83356;SDS011;73272;50.882;5.984;2024-01-06T14:06:15;26.23;;;10.13;;
83356;SDS011;73272;50.882;5.984;2024-01-06T14:08:42;25.92;;;11.13;;
83356;SDS011;73272;50.882;5.984;2024-01-06T14:11:08;25.58;;;10.43;;
83356;SDS011;73272;50.882;5.984;2024-01-06T14:13:34;30.60;;;10.73;;
83356;SDS011;73272;50.882;5.984;2024-01-06T14:15:59;24.50;;;9.93;;
83356;SDS011;73272;50.882;5.984;2024-01-06T14:18:25;24.70;;;10.45;;
83356;SDS011;73272;50.882;5.984;2024-01-06T14:20:52;25.73;;;10.63;;
83356;SDS011;73272;50.882;5.984;2024-01-06T14:23:20;24.05;;;10.05;;
83356;SDS011;73272;50.882;5.984;2024-01-06T14:25:46;26.40;;;10.90;;